Time;durP1;ratioP1;P1;durP2;ratioP2;P2;SDS_P1;SDS_P2;PMS_P1;PMS_P2;Temp;Humidity;BMP_temperature;BMP_pressure;BME280_temperature;BME280_humidity;BME280_pressure;Samples;Min_cycle;Max_cycle;Signal;HPM_P1;HPM_P2
2021/12/30 00:02:25;;;;;;;26.48;10.38;;;10.60;99.90;;;;;;5050171;28;20055;-43
2021/12/30 00:04:50;;;;;;;29.15;11.43;;;10.60;99.90;;;;;;5050232;28;20115;-43
2021/12/30 00:07:16;;;;;;;28.95;10.45;;;10.60;99.90;;;;;;5050565;28;20096;-42
2021/12/30 00:09:42;;;;;;;32.75;10.93;;;10.50;99.90;;;;;;5050094;28;20468;-43
2021/12/30 00:12:10;;;;;;;24.88;9.90;;;10.50;99.90;;;;;;5050637;28;20052;-43
2021/12/30 00:14:36;;;;;;;27.80;11.25;;;10.50;99.90;;;;;;5050115;28;20020;-43
2021/12/30 00:17:03;;;;;;;26.20;11.85;;;10.50;99.90;;;;;;5049968;28;20492;-43
2021/12/30 00:19:28;;;;;;;33.20;12.98;;;10.50;99.90;;;;;;5049605;28;20110;-43
2021/12/30 00:21:54;;;;;;;27.52;12.77;;;10.60;99.90;;;;;;5050115;28;20053;-43
2021/12/30 00:24:19;;;;;;;27.73;12.18;;;10.60;99.90;;;;;;5049995;28;20548;-43
2021/12/30 00:26:45;;;;;;;36.17;13.48;;;10.60;99.90;;;;;;5049684;28;20025;-44
2021/12/30 00:29:10;;;;;;;37.47;14.27;;;10.70;99.90;;;;;;5050272;28;20479;-43
2021/12/30 00:31:36;;;;;;;28.00;12.43;;;10.80;99.90;;;;;;5048002;28;20035;-43
2021/12/30 00:34:01;;;;;;;23.83;12.50;;;10.80;99.90;;;;;;5049052;28;20021;-44
2021/12/30 00:36:27;;;;;;;22.70;11.55;;;10.90;99.90;;;;;;5049555;28;20711;-43
2021/12/30 00:38:52;;;;;;;28.48;12.77;;;10.90;99.90;;;;;;5050140;28;20029;-43
2021/12/30 00:41:19;;;;;;;31.30;12.90;;;11.00;99.90;;;;;;5049752;28;20021;-45
2021/12/30 00:43:45;;;;;;;31.65;12.50;;;11.00;99.90;;;;;;5049322;28;20122;-44
2021/12/30 00:46:10;;;;;;;35.40;13.27;;;11.00;99.90;;;;;;5049928;28;20461;-43
2021/12/30 00:48:37;;;;;;;29.35;12.30;;;11.10;99.90;;;;;;5049416;28;20056;-42
2021/12/30 00:51:03;;;;;;;27.83;11.77;;;11.20;99.90;;;;;;5049347;28;20235;-43
2021/12/30 00:53:29;;;;;;;28.75;10.70;;;11.20;99.90;;;;;;5049037;28;20693;-43
2021/12/30 00:55:54;;;;;;;24.17;10.98;;;11.20;99.90;;;;;;5048856;28;20028;-43
2021/12/30 00:58:20;;;;;;;18.85;9.20;;;11.30;99.90;;;;;;5049684;28;20033;-43
2021/12/30 01:00:46;;;;;;;30.92;10.48;;;11.30;99.90;;;;;;5049687;28;20024;-43
2021/12/30 01:03:13;;;;;;;23.20;10.23;;;11.30;99.90;;;;;;5049104;28;20033;-43
2021/12/30 01:05:38;;;;;;;22.10;9.15;;;11.40;99.90;;;;;;5048910;28;20519;-43
2021/12/30 01:08:06;;;;;;;30.65;10.40;;;11.40;99.90;;;;;;5049513;28;20024;-42
2021/12/30 01:10:32;;;;;;;29.35;9.95;;;11.40;99.90;;;;;;5048761;28;20015;-44
2021/12/30 01:13:05;;;;;;;28.40;9.75;;;11.40;99.90;;;;;;5049390;28;20816;-44
2021/12/30 01:15:44;;;;;;;26.08;8.65;;;11.50;99.90;;;;;;5049524;28;20023;-43
2021/12/30 01:18:38;;;;;;;24.63;9.98;;;11.50;99.90;;;;;;5048808;28;20085;-43
2021/12/30 01:20:57;;;;;;;26.95;8.95;;;11.50;99.90;;;;;;5048568;28;20040;-43
2021/12/30 01:23:24;;;;;;;17.23;7.78;;;11.50;99.90;;;;;;5048830;28;20052;-43
2021/12/30 01:25:49;;;;;;;18.50;7.03;;;11.50;99.90;;;;;;5048649;28;20017;-43
2021/12/30 01:28:15;;;;;;;20.20;7.28;;;11.60;99.90;;;;;;5049175;28;20031;-43
2021/12/30 01:30:41;;;;;;;27.10;7.72;;;11.60;99.90;;;;;;5048977;28;20021;-43
2021/12/30 01:33:07;;;;;;;25.65;7.20;;;11.60;99.90;;;;;;5048535;28;20503;-43
2021/12/30 01:35:32;;;;;;;23.85;7.45;;;11.70;99.90;;;;;;5048777;28;20029;-44
2021/12/30 01:38:00;;;;;;;22.38;7.35;;;11.70;99.90;;;;;;5048535;28;20065;-42
2021/12/30 01:40:27;;;;;;;20.00;6.93;;;11.70;99.90;;;;;;5048673;28;20032;-43
2021/12/30 01:42:52;;;;;;;25.90;8.63;;;11.70;99.90;;;;;;5048321;28;20147;-43
2021/12/30 01:45:18;;;;;;;21.25;7.15;;;11.70;99.90;;;;;;5048397;28;20190;-43
2021/12/30 01:47:51;;;;;;;22.42;8.77;;;11.80;99.90;;;;;;5048461;28;20485;-43
2021/12/30 01:50:24;;;;;;;30.35;9.38;;;11.80;99.90;;;;;;5049383;28;20036;-45
2021/12/30 01:52:50;;;;;;;;;;;11.90;99.90;;;;;;5048468;28;20029;-44
2021/12/30 01:55:16;;;;;;;29.95;9.70;;;11.90;99.90;;;;;;5049048;28;20357;-43
2021/12/30 01:57:42;;;;;;;32.97;12.20;;;11.90;99.90;;;;;;5047693;28;20112;-43
2021/12/30 02:00:11;;;;;;;26.25;9.40;;;11.90;99.90;;;;;;5048121;28;20175;-43
2021/12/30 02:02:37;;;;;;;27.35;9.98;;;12.00;99.90;;;;;;5048541;28;20103;-44
2021/12/30 02:05:03;;;;;;;28.33;11.60;;;12.00;99.90;;;;;;5048673;28;20166;-43
2021/12/30 02:07:28;;;;;;;36.33;11.77;;;12.10;99.90;;;;;;5048101;28;20388;-43
2021/12/30 02:10:00;;;;;;;26.67;11.45;;;12.10;99.90;;;;;;5047797;28;20085;-43
2021/12/30 02:12:26;;;;;;;35.83;11.85;;;12.10;99.90;;;;;;5047495;28;20013;-43
2021/12/30 02:14:51;;;;;;;40.88;12.80;;;12.10;99.90;;;;;;5048103;28;20020;-44
2021/12/30 02:17:18;;;;;;;33.33;12.65;;;12.20;99.90;;;;;;5048922;28;20040;-43
2021/12/30 02:19:43;;;;;;;39.33;13.30;;;12.10;99.90;;;;;;5047664;28;20029;-44
2021/12/30 02:22:09;;;;;;;38.83;14.05;;;12.20;99.90;;;;;;5046941;28;20025;-42
2021/12/30 02:24:36;;;;;;;31.10;13.48;;;12.20;99.90;;;;;;5048325;28;20024;-43
2021/12/30 02:27:02;;;;;;;41.58;14.65;;;12.20;99.90;;;;;;5047742;28;20100;-42
2021/12/30 02:29:28;;;;;;;34.05;13.40;;;12.20;99.90;;;;;;5047936;28;20119;-42
2021/12/30 02:31:54;;;;;;;37.95;12.75;;;12.30;99.90;;;;;;5048273;28;20108;-42
2021/12/30 02:34:21;;;;;;;28.58;12.15;;;12.30;99.90;;;;;;5046946;28;20060;-43
2021/12/30 02:36:47;;;;;;;24.88;10.90;;;12.30;99.90;;;;;;5047823;28;20029;-43
2021/12/30 02:39:14;;;;;;;37.30;12.25;;;12.30;99.90;;;;;;5047961;28;20029;-44
2021/12/30 02:41:40;;;;;;;35.90;13.00;;;12.30;99.90;;;;;;5047417;28;20017;-43
2021/12/30 02:44:08;;;;;;;33.17;13.05;;;12.30;99.90;;;;;;5047620;28;20398;-44
2021/12/30 02:46:35;;;;;;;27.77;11.45;;;12.40;99.90;;;;;;5047357;28;20494;-43
2021/12/30 02:49:02;;;;;;;25.25;10.27;;;12.40;99.90;;;;;;5046658;28;20044;-42
2021/12/30 02:51:27;;;;;;;29.67;11.32;;;12.40;99.90;;;;;;5047783;28;20071;-43
2021/12/30 02:53:54;;;;;;;31.95;10.55;;;12.40;99.90;;;;;;5047213;28;20068;-43
2021/12/30 02:56:21;;;;;;;26.98;9.90;;;12.40;99.90;;;;;;5047058;28;20127;-44
2021/12/30 02:58:47;;;;;;;30.65;9.77;;;12.40;99.90;;;;;;5047179;28;20029;-42
2021/12/30 03:01:14;;;;;;;27.58;9.88;;;12.30;99.90;;;;;;5047427;28;20153;-43
2021/12/30 03:03:40;;;;;;;28.25;10.27;;;12.30;99.90;;;;;;5046421;28;20484;-43
2021/12/30 03:06:07;;;;;;;26.10;9.93;;;12.30;99.90;;;;;;5046967;28;20044;-43
2021/12/30 03:08:33;;;;;;;24.48;9.68;;;12.30;99.90;;;;;;5047332;28;20029;-44
2021/12/30 03:10:59;;;;;;;29.60;9.95;;;12.30;99.90;;;;;;5046848;28;20029;-42
2021/12/30 03:13:32;;;;;;;28.80;9.65;;;12.30;99.90;;;;;;5047322;28;20025;-43
2021/12/30 03:16:11;;;;;;;28.13;9.32;;;12.30;99.90;;;;;;5046890;28;20527;-42
2021/12/30 03:18:38;;;;;;;23.73;8.57;;;12.30;99.90;;;;;;5047034;28;20032;-42
2021/12/30 03:21:06;;;;;;;24.98;9.23;;;12.30;99.90;;;;;;5046571;28;20626;-43
2021/12/30 03:23:32;;;;;;;24.60;9.35;;;12.30;99.90;;;;;;5045368;28;20539;-43
2021/12/30 03:25:57;;;;;;;22.42;9.07;;;12.30;99.90;;;;;;5046653;28;20165;-43
2021/12/30 03:28:23;;;;;;;20.92;9.52;;;12.30;99.90;;;;;;5046915;28;20060;-43
2021/12/30 03:30:49;;;;;;;26.30;9.50;;;12.30;99.90;;;;;;5046428;28;20021;-42
2021/12/30 03:33:15;;;;;;;20.13;9.25;;;12.30;99.90;;;;;;5047175;28;20026;-44
2021/12/30 03:35:41;;;;;;;29.00;9.13;;;12.30;99.90;;;;;;5046182;28;20370;-42
2021/12/30 03:38:06;;;;;;;26.33;10.30;;;12.30;99.90;;;;;;5046618;28;20040;-44
2021/12/30 03:40:33;;;;;;;18.30;8.20;;;12.40;99.90;;;;;;5046501;28;20495;-44
2021/12/30 03:42:58;;;;;;;25.33;9.45;;;12.30;99.90;;;;;;5046712;28;20552;-42
2021/12/30 03:45:24;;;;;;;32.55;10.73;;;12.40;99.90;;;;;;5046234;28;20028;-43
2021/12/30 03:47:51;;;;;;;23.50;9.95;;;12.40;99.90;;;;;;5046292;28;20490;-43
2021/12/30 03:50:25;;;;;;;25.67;9.63;;;12.40;99.90;;;;;;5046613;28;20615;-43
2021/12/30 03:52:55;;;;;;;21.60;9.15;;;12.30;99.90;;;;;;5046046;28;20461;-43
2021/12/30 03:55:22;;;;;;;20.73;9.90;;;12.30;99.90;;;;;;5047008;28;20025;-43
2021/12/30 03:57:49;;;;;;;24.77;9.95;;;12.30;99.90;;;;;;5046013;28;20056;-44
2021/12/30 04:00:16;;;;;;;17.83;9.82;;;12.30;99.90;;;;;;5046948;28;20017;-43
2021/12/30 04:02:42;;;;;;;19.83;10.00;;;12.30;99.90;;;;;;5044954;28;20033;-43
2021/12/30 04:05:09;;;;;;;23.50;10.65;;;12.30;99.90;;;;;;5046372;28;20507;-42
2021/12/30 04:07:35;;;;;;;28.15;11.00;;;12.30;99.90;;;;;;5046481;28;20107;-42
2021/12/30 04:10:01;;;;;;;20.65;10.82;;;12.30;99.90;;;;;;5046446;28;20469;-43
2021/12/30 04:12:26;;;;;;;27.75;11.32;;;12.30;99.90;;;;;;5045888;28;20032;-44
2021/12/30 04:14:52;;;;;;;21.35;10.35;;;12.30;99.90;;;;;;5046197;28;20017;-43
2021/12/30 04:17:17;;;;;;;24.40;11.25;;;12.30;99.90;;;;;;5046702;28;20091;-44
2021/12/30 04:19:43;;;;;;;26.65;12.30;;;12.30;99.90;;;;;;5045866;28;20151;-43
2021/12/30 04:22:08;;;;;;;28.85;12.07;;;12.30;99.90;;;;;;5045977;28;20021;-42
2021/12/30 04:24:34;;;;;;;26.05;12.20;;;12.30;99.90;;;;;;5046744;28;20017;-42
2021/12/30 04:27:00;;;;;;;18.55;10.15;;;12.30;99.90;;;;;;5045966;28;20037;-43
2021/12/30 04:29:25;;;;;;;24.58;11.30;;;12.30;99.90;;;;;;5046045;28;20021;-42
2021/12/30 04:31:51;;;;;;;21.95;11.65;;;12.30;99.90;;;;;;5046133;28;20388;-43
2021/12/30 04:34:17;;;;;;;23.75;12.55;;;12.30;99.90;;;;;;5047995;28;20029;-43
2021/12/30 04:36:42;;;;;;;17.83;11.55;;;12.40;99.90;;;;;;5049429;28;20017;-43
2021/12/30 04:39:09;;;;;;;17.20;10.57;;;12.40;99.90;;;;;;5049923;28;20069;-43
2021/12/30 04:41:35;;;;;;;17.13;11.15;;;12.40;99.90;;;;;;5049644;28;20029;-42
2021/12/30 04:44:01;;;;;;;14.73;10.00;;;12.40;99.90;;;;;;5049850;28;20524;-42
2021/12/30 04:46:27;;;;;;;20.23;10.93;;;12.40;99.90;;;;;;5050292;28;20082;-42
2021/12/30 04:48:52;;;;;;;16.98;10.18;;;12.40;99.90;;;;;;5048499;28;20041;-42
2021/12/30 04:51:18;;;;;;;18.45;10.25;;;12.40;99.90;;;;;;5050144;28;20152;-42
2021/12/30 04:53:44;;;;;;;15.68;9.45;;;12.40;99.90;;;;;;5049615;28;20029;-43
2021/12/30 04:56:11;;;;;;;15.65;10.02;;;12.40;99.90;;;;;;5049097;28;20254;-44
2021/12/30 04:58:36;;;;;;;14.02;9.15;;;12.40;99.90;;;;;;5049624;28;20009;-43
2021/12/30 05:01:02;;;;;;;13.77;8.57;;;12.40;99.90;;;;;;5049009;28;20036;-43
2021/12/30 05:03:28;;;;;;;12.75;9.10;;;12.50;99.90;;;;;;5049143;28;20029;-43
2021/12/30 05:05:55;;;;;;;14.85;8.85;;;12.50;99.90;;;;;;5050206;28;20107;-42
2021/12/30 05:08:25;;;;;;;11.07;9.05;;;12.50;99.90;;;;;;5049150;28;20032;-42
2021/12/30 05:10:52;;;;;;;9.85;8.25;;;12.50;99.90;;;;;;5049328;28;20024;-43
2021/12/30 05:13:20;;;;;;;9.18;7.13;;;12.50;99.90;;;;;;5049278;28;20028;-43
2021/12/30 05:15:48;;;;;;;10.10;7.88;;;12.60;99.90;;;;;;5048738;28;20025;-43
2021/12/30 05:18:15;;;;;;;12.30;8.60;;;12.60;99.90;;;;;;5049248;28;20024;-43
2021/12/30 05:20:42;;;;;;;10.35;7.93;;;12.60;99.90;;;;;;5049423;28;20447;-43
2021/12/30 05:23:08;;;;;;;11.27;8.55;;;12.60;99.90;;;;;;5048683;28;20115;-43
2021/12/30 05:25:34;;;;;;;10.18;6.90;;;12.60;99.90;;;;;;5049016;28;20159;-43
2021/12/30 05:28:00;;;;;;;7.93;6.43;;;12.60;99.90;;;;;;5049346;28;20090;-43
2021/12/30 05:30:26;;;;;;;9.38;7.00;;;12.60;99.90;;;;;;5048268;28;20473;-43
2021/12/30 05:32:54;;;;;;;8.27;6.10;;;12.60;99.90;;;;;;5048752;28;20025;-43
2021/12/30 05:35:20;;;;;;;7.53;5.78;;;12.70;99.90;;;;;;5049165;28;20032;-42
2021/12/30 05:37:46;;;;;;;7.55;6.60;;;12.60;99.90;;;;;;5047690;28;20025;-44
2021/12/30 05:40:15;;;;;;;7.00;5.90;;;12.70;99.90;;;;;;5048800;28;20067;-43
2021/12/30 05:42:40;;;;;;;5.95;4.93;;;12.70;99.90;;;;;;5049250;28;20095;-43
2021/12/30 05:45:07;;;;;;;6.10;5.47;;;12.70;99.90;;;;;;5047477;28;20091;-42
2021/12/30 05:47:33;;;;;;;6.00;5.28;;;12.70;99.90;;;;;;5048764;28;20033;-43
2021/12/30 05:50:00;;;;;;;7.40;5.50;;;12.70;99.90;;;;;;5048078;28;20508;-43
2021/12/30 05:52:26;;;;;;;6.25;5.65;;;12.70;99.90;;;;;;5048211;28;20075;-43
2021/12/30 05:54:51;;;;;;;5.90;5.28;;;12.70;99.90;;;;;;5048901;28;20028;-42
2021/12/30 05:57:17;;;;;;;6.40;5.32;;;12.70;99.90;;;;;;5048655;28;20036;-43
2021/12/30 05:59:42;;;;;;;5.93;5.22;;;12.70;99.90;;;;;;5047983;28;20385;-42
2021/12/30 06:02:08;;;;;;;7.90;6.38;;;12.80;99.90;;;;;;5048350;28;20519;-43
2021/12/30 06:04:35;;;;;;;10.25;7.35;;;12.80;99.90;;;;;;5048391;28;20021;-43
2021/12/30 06:07:00;;;;;;;8.40;7.15;;;12.80;99.90;;;;;;5048174;28;20576;-42
2021/12/30 06:09:26;;;;;;;9.27;6.82;;;12.90;99.90;;;;;;5048346;28;20032;-43
2021/12/30 06:11:53;;;;;;;8.50;7.40;;;12.90;99.90;;;;;;5047858;28;20025;-43
2021/12/30 06:14:18;;;;;;;8.80;7.35;;;12.90;99.90;;;;;;5048080;28;20039;-44
2021/12/30 06:16:44;;;;;;;12.52;8.25;;;13.00;99.90;;;;;;5047873;28;20044;-43
2021/12/30 06:19:10;;;;;;;13.02;8.63;;;13.00;99.90;;;;;;5048013;28;20040;-43
2021/12/30 06:21:35;;;;;;;8.63;7.55;;;13.00;99.90;;;;;;5047657;28;20055;-42
2021/12/30 06:24:01;;;;;;;10.00;7.93;;;13.00;99.90;;;;;;5048122;28;20387;-42
2021/12/30 06:26:27;;;;;;;9.90;8.90;;;13.00;99.90;;;;;;5047525;28;20017;-43
2021/12/30 06:28:52;;;;;;;9.70;8.70;;;13.00;99.90;;;;;;5047776;28;20091;-43
2021/12/30 06:31:18;;;;;;;11.30;10.27;;;13.00;99.90;;;;;;5048399;28;20078;-43
2021/12/30 06:33:46;;;;;;;15.18;12.68;;;13.00;99.90;;;;;;5047809;28;20029;-43
2021/12/30 06:36:12;;;;;;;15.43;13.88;;;13.00;99.90;;;;;;5047402;28;20021;-43
2021/12/30 06:38:37;;;;;;;16.30;14.70;;;13.00;99.90;;;;;;5048024;28;20039;-42
2021/12/30 06:41:03;;;;;;;15.27;13.68;;;13.00;99.90;;;;;;5047071;28;20772;-42
2021/12/30 06:43:29;;;;;;;16.42;13.55;;;13.10;99.90;;;;;;5047694;28;20033;-42
2021/12/30 06:45:55;;;;;;;13.73;11.95;;;13.10;99.90;;;;;;5047439;28;20061;-42
2021/12/30 06:48:20;;;;;;;10.07;7.88;;;13.10;99.90;;;;;;5046906;28;20489;-42
2021/12/30 06:50:51;;;;;;;9.27;6.50;;;13.10;99.90;;;;;;5046874;28;20025;-43
2021/12/30 06:53:22;;;;;;;6.05;4.88;;;13.20;99.90;;;;;;5047855;28;20028;-42
2021/12/30 06:55:49;;;;;;;5.03;4.22;;;13.20;99.90;;;;;;5047089;28;20044;-43
2021/12/30 06:58:15;;;;;;;6.25;4.00;;;13.20;99.90;;;;;;5046767;28;20028;-43
2021/12/30 07:00:40;;;;;;;6.00;3.70;;;13.20;99.90;;;;;;5047210;28;20029;-43
2021/12/30 07:03:06;;;;;;;5.70;3.67;;;13.20;99.90;;;;;;5047349;28;20041;-43
2021/12/30 07:05:33;;;;;;;5.65;3.90;;;13.20;99.90;;;;;;5047317;28;20025;-43
2021/12/30 07:07:59;;;;;;;4.20;3.58;;;13.10;99.90;;;;;;5046674;28;20039;-44
2021/12/30 07:10:25;;;;;;;4.90;4.10;;;13.20;99.90;;;;;;5047170;28;20044;-44
2021/12/30 07:12:50;;;;;;;4.57;3.72;;;13.10;99.90;;;;;;5046982;28;20112;-43
2021/12/30 07:15:16;;;;;;;7.32;4.05;;;13.10;99.90;;;;;;5046512;28;20064;-43
2021/12/30 07:17:41;;;;;;;4.20;3.80;;;13.10;99.90;;;;;;5047072;28;20021;-43
2021/12/30 07:20:09;;;;;;;3.80;3.38;;;13.10;99.90;;;;;;5047243;28;20021;-43
2021/12/30 07:22:35;;;;;;;7.22;3.90;;;13.10;99.90;;;;;;5045961;28;20484;-43
2021/12/30 07:25:01;;;;;;;6.82;4.38;;;13.10;99.90;;;;;;5047291;28;20028;-42
2021/12/30 07:27:26;;;;;;;5.60;5.00;;;13.10;99.90;;;;;;5046711;28;20082;-44
2021/12/30 07:29:52;;;;;;;8.45;5.53;;;13.10;99.90;;;;;;5046264;28;20508;-43
2021/12/30 07:32:18;;;;;;;7.82;5.55;;;13.10;99.90;;;;;;5047230;28;20029;-43
2021/12/30 07:34:44;;;;;;;6.68;5.82;;;13.10;99.90;;;;;;5046678;28;20376;-43
2021/12/30 07:37:14;;;;;;;8.25;6.80;;;13.20;99.90;;;;;;5046074;28;20036;-44
2021/12/30 07:39:40;;;;;;;7.85;6.20;;;13.20;99.90;;;;;;5046891;28;20029;-43
2021/12/30 07:42:05;;;;;;;9.35;7.03;;;13.20;99.90;;;;;;5047031;28;20037;-43
2021/12/30 07:44:31;;;;;;;10.00;7.13;;;13.20;99.90;;;;;;5046482;28;20025;-43
2021/12/30 07:46:56;;;;;;;10.07;7.72;;;13.20;99.90;;;;;;5046909;28;20021;-43
2021/12/30 07:49:22;;;;;;;12.38;8.77;;;13.30;99.90;;;;;;5046603;28;20068;-43
2021/12/30 07:51:47;;;;;;;10.85;8.30;;;13.30;99.90;;;;;;5046319;28;20017;-43
2021/12/30 07:54:13;;;;;;;11.48;8.50;;;13.30;99.90;;;;;;5047040;28;20025;-43
2021/12/30 07:56:38;;;;;;;11.15;9.43;;;13.30;99.90;;;;;;5046675;28;20025;-43
2021/12/30 07:59:04;;;;;;;14.98;10.20;;;13.40;99.90;;;;;;5045975;28;20507;-43
2021/12/30 08:01:29;;;;;;;15.38;12.30;;;13.40;99.90;;;;;;5047430;28;20044;-44
2021/12/30 08:03:55;;;;;;;13.18;11.80;;;13.40;99.90;;;;;;5045548;28;20057;-42
2021/12/30 08:06:22;;;;;;;15.93;13.20;;;13.40;99.90;;;;;;5047306;28;20574;-43
2021/12/30 08:08:47;;;;;;;15.82;13.48;;;13.40;99.90;;;;;;5047007;28;20792;-43
2021/12/30 08:11:14;;;;;;;16.08;13.20;;;13.40;99.90;;;;;;5050541;28;20056;-43
2021/12/30 08:13:39;;;;;;;17.80;13.55;;;13.50;99.90;;;;;;5050577;28;20029;-42
2021/12/30 08:16:05;;;;;;;16.30;12.88;;;13.50;99.90;;;;;;5050165;28;20029;-43
2021/12/30 08:18:30;;;;;;;17.58;13.15;;;13.50;99.90;;;;;;5050071;28;20070;-42
2021/12/30 08:20:56;;;;;;;19.13;13.45;;;13.50;99.90;;;;;;5049326;28;20421;-44
2021/12/30 08:23:22;;;;;;;15.05;12.07;;;13.60;99.90;;;;;;5051126;28;20057;-43
2021/12/30 08:25:50;;;;;;;15.68;11.80;;;13.60;99.90;;;;;;5049477;28;20025;-43
2021/12/30 08:28:17;;;;;;;14.05;10.65;;;13.70;99.90;;;;;;5050485;28;20104;-43
2021/12/30 08:30:43;;;;;;;16.50;11.73;;;13.70;99.90;;;;;;5049912;28;20112;-43
2021/12/30 08:33:09;;;;;;;11.88;10.65;;;13.70;99.90;;;;;;5049733;28;20025;-43
2021/12/30 08:35:35;;;;;;;13.10;10.57;;;13.80;99.90;;;;;;5048991;28;20047;-43
2021/12/30 08:38:01;;;;;;;12.07;10.10;;;13.80;99.90;;;;;;5047555;28;20047;-43
2021/12/30 08:40:26;;;;;;;10.68;9.57;;;13.80;99.90;;;;;;5048330;28;20013;-43
2021/12/30 08:42:52;;;;;;;10.40;9.25;;;13.90;99.90;;;;;;5048688;28;20095;-43
2021/12/30 08:45:18;;;;;;;11.07;9.55;;;13.90;99.90;;;;;;5049334;28;20025;-44
2021/12/30 08:47:45;;;;;;;10.57;9.52;;;14.00;99.90;;;;;;5046534;28;20024;-43
2021/12/30 08:50:13;;;;;;;11.02;9.25;;;13.90;99.90;;;;;;5048131;28;20037;-43
2021/12/30 08:52:40;;;;;;;10.25;8.40;;;14.00;99.90;;;;;;5048481;28;20055;-44
2021/12/30 08:55:07;;;;;;;11.80;8.38;;;14.00;99.90;;;;;;5047781;28;20017;-42
2021/12/30 08:57:34;;;;;;;8.25;7.32;;;14.00;99.90;;;;;;5047020;28;20043;-43
2021/12/30 09:00:00;;;;;;;9.90;7.95;;;14.00;99.90;;;;;;5048600;28;20044;-44
2021/12/30 09:02:26;;;;;;;10.98;7.80;;;14.00;99.90;;;;;;5048037;28;20055;-43
2021/12/30 09:04:52;;;;;;;10.15;8.32;;;14.00;99.90;;;;;;5048697;28;20036;-43
2021/12/30 09:07:18;;;;;;;9.00;8.10;;;14.00;99.90;;;;;;5047861;28;20036;-43
2021/12/30 09:09:45;;;;;;;8.93;8.02;;;14.10;99.90;;;;;;5048882;28;20032;-43
2021/12/30 09:12:11;;;;;;;10.77;7.95;;;14.10;99.90;;;;;;5048379;28;20515;-43
2021/12/30 09:14:36;;;;;;;8.40;7.43;;;14.10;99.90;;;;;;5048001;28;20021;-44
2021/12/30 09:17:03;;;;;;;12.18;8.10;;;14.10;99.90;;;;;;5047562;28;20052;-43
2021/12/30 09:19:28;;;;;;;9.48;7.60;;;14.10;99.90;;;;;;5048755;28;20037;-43
2021/12/30 09:21:56;;;;;;;8.63;6.82;;;14.10;99.90;;;;;;5047426;28;20067;-42
2021/12/30 09:24:22;;;;;;;11.90;6.93;;;14.10;99.90;;;;;;5047989;28;20043;-43
2021/12/30 09:26:48;;;;;;;14.70;7.60;;;14.10;99.90;;;;;;5048332;28;20385;-43
2021/12/30 09:29:13;;;;;;;12.75;6.78;;;14.10;99.90;;;;;;5048250;28;20546;-43
2021/12/30 09:31:41;;;;;;;9.70;6.35;;;14.10;99.90;;;;;;5048862;28;20067;-43
2021/12/30 09:34:07;;;;;;;9.02;6.15;;;14.10;99.90;;;;;;5048759;28;20021;-44
2021/12/30 09:36:33;;;;;;;11.98;6.03;;;14.10;99.90;;;;;;5047922;28;20070;-44
2021/12/30 09:38:59;;;;;;;10.93;5.45;;;14.20;99.90;;;;;;5048401;28;20067;-43
2021/12/30 09:41:26;;;;;;;8.32;4.95;;;14.20;99.90;;;;;;5048983;28;20017;-43
2021/12/30 09:43:51;;;;;;;7.43;4.50;;;14.20;99.90;;;;;;5047374;28;20144;-43
2021/12/30 09:46:18;;;;;;;7.22;4.40;;;14.20;99.90;;;;;;5049118;28;20120;-43
2021/12/30 09:48:44;;;;;;;8.55;4.45;;;14.30;99.90;;;;;;5048424;28;20087;-43
2021/12/30 09:51:10;;;;;;;8.00;4.05;;;14.30;99.90;;;;;;5048048;28;20023;-43
2021/12/30 09:53:36;;;;;;;6.00;3.78;;;14.30;99.90;;;;;;5048092;28;20103;-43
2021/12/30 09:56:01;;;;;;;8.40;4.20;;;14.30;99.90;;;;;;5048522;28;20032;-44
2021/12/30 09:58:27;;;;;;;8.65;5.10;;;14.30;99.90;;;;;;5047551;28;20017;-43
2021/12/30 10:00:55;;;;;;;12.38;4.13;;;14.40;99.90;;;;;;5048380;28;20033;-43
2021/12/30 10:03:20;;;;;;;10.63;4.53;;;14.40;99.90;;;;;;5048682;28;20040;-44
2021/12/30 10:05:46;;;;;;;7.45;4.28;;;14.40;99.90;;;;;;5047119;28;20025;-43
2021/12/30 10:08:25;;;;;;;10.43;4.63;;;14.50;99.90;;;;;;5048367;28;20067;-44
2021/12/30 10:10:54;;;;;;;9.82;4.90;;;14.50;99.90;;;;;;5047955;28;20025;-43
2021/12/30 10:13:29;;;;;;;6.35;3.65;;;14.60;99.90;;;;;;5048408;28;20367;-43
2021/12/30 10:15:59;;;;;;;7.65;3.70;;;14.60;99.90;;;;;;5047992;28;20029;-44
2021/12/30 10:18:43;;;;;;;9.18;3.92;;;14.60;99.90;;;;;;5047114;28;20021;-44
2021/12/30 10:21:22;;;;;;;7.93;3.65;;;14.60;99.90;;;;;;5039074;28;20028;-43
2021/12/30 10:23:54;;;;;;;6.32;3.22;;;14.60;99.90;;;;;;5047541;28;20041;-43
2021/12/30 10:26:19;;;;;;;6.95;3.17;;;14.60;99.90;;;;;;5048059;28;20025;-44
2021/12/30 10:28:49;;;;;;;8.65;3.65;;;14.60;99.90;;;;;;5047612;28;20021;-43
2021/12/30 10:31:16;;;;;;;7.20;3.13;;;14.60;99.90;;;;;;5047092;28;20423;-43
2021/12/30 10:33:48;;;;;;;7.32;3.45;;;14.60;99.90;;;;;;5046001;28;20029;-43
2021/12/30 10:36:45;;;;;;;8.00;3.47;;;14.60;99.90;;;;;;5047672;28;20092;-43
2021/12/30 10:39:18;;;;;;;7.75;3.13;;;14.60;99.90;;;;;;5042898;28;20029;-43
2021/12/30 10:41:45;;;;;;;9.82;3.67;;;14.70;99.90;;;;;;5037720;28;20135;-44
2021/12/30 10:44:11;;;;;;;12.13;4.10;;;14.70;99.90;;;;;;5047714;28;20045;-43
2021/12/30 10:46:36;;;;;;;11.90;4.00;;;14.70;99.90;;;;;;5046556;28;20013;-42
2021/12/30 10:49:09;;;;;;;12.13;5.43;;;14.60;99.90;;;;;;5047314;28;20060;-44
2021/12/30 10:51:48;;;;;;;11.95;4.75;;;14.70;99.90;;;;;;5044392;28;20027;-44
2021/12/30 10:54:20;;;;;;;7.40;4.63;;;14.70;99.90;;;;;;5046451;28;20029;-43
2021/12/30 10:56:57;;;;;;;13.43;5.10;;;14.70;99.90;;;;;;5035576;28;20099;-43
2021/12/30 10:59:28;;;;;;;10.85;5.43;;;14.70;99.90;;;;;;5028343;28;20053;-43
2021/12/30 11:02:12;;;;;;;9.15;4.63;;;14.80;99.90;;;;;;5044070;28;20048;-44
2021/12/30 11:04:44;;;;;;;9.95;4.72;;;14.80;99.90;;;;;;5047876;28;20507;-44
2021/12/30 11:07:13;;;;;;;13.23;5.30;;;14.80;99.90;;;;;;5047273;28;20013;-43
2021/12/30 11:09:49;;;;;;;15.13;5.20;;;14.80;99.90;;;;;;5045868;28;20021;-44
2021/12/30 11:12:22;;;;;;;13.63;5.68;;;14.80;99.90;;;;;;5044951;28;20067;-43
2021/12/30 11:14:47;;;;;;;;;;;14.80;99.90;;;;;;5047824;28;20124;-44
2021/12/30 11:17:18;;;;;;;10.85;4.35;;;14.80;99.90;;;;;;5048104;28;20419;-44
2021/12/30 11:19:48;;;;;;;9.93;4.40;;;14.80;99.90;;;;;;5047369;28;20538;-43
2021/12/30 11:22:16;;;;;;;12.98;4.55;;;14.80;99.90;;;;;;5047622;28;20036;-43
2021/12/30 11:24:44;;;;;;;9.80;4.63;;;14.80;99.90;;;;;;5047381;28;20843;-46
2021/12/30 11:27:11;;;;;;;10.50;4.05;;;14.80;99.90;;;;;;5047310;28;20422;-43
2021/12/30 11:29:39;;;;;;;8.35;4.28;;;14.80;99.90;;;;;;5044941;28;20037;-44
2021/12/30 11:32:07;;;;;;;11.27;4.30;;;14.80;99.90;;;;;;5047250;28;20028;-43
2021/12/30 11:34:33;;;;;;;12.18;4.63;;;14.80;99.90;;;;;;5047724;28;20067;-44
2021/12/30 11:37:00;;;;;;;10.52;4.47;;;14.80;99.90;;;;;;5046805;28;20021;-43
2021/12/30 11:39:26;;;;;;;11.77;4.90;;;14.80;99.90;;;;;;5047979;28;20104;-43
2021/12/30 11:42:17;;;;;;;8.60;4.00;;;14.80;99.90;;;;;;5046955;28;20078;-44
2021/12/30 11:44:47;;;;;;;11.93;4.30;;;14.80;99.90;;;;;;5049364;28;20069;-43
2021/12/30 11:47:32;;;;;;;11.68;3.83;;;14.80;99.90;;;;;;5052107;28;20108;-43
2021/12/30 11:50:07;;;;;;;12.68;3.83;;;14.80;99.90;;;;;;5051052;28;20106;-44
2021/12/30 11:53:11;;;;;;;13.07;4.18;;;14.90;99.90;;;;;;5051473;28;20021;-43
2021/12/30 11:55:59;;;;;;;7.70;3.45;;;14.90;99.90;;;;;;5030785;28;20034;-43
2021/12/30 11:58:27;;;;;;;10.65;3.80;;;14.90;99.90;;;;;;5050061;28;20536;-43
2021/12/30 12:01:00;;;;;;;8.57;3.30;;;14.90;99.90;;;;;;5051820;28;20037;-43
2021/12/30 12:03:38;;;;;;;10.65;3.58;;;14.90;99.90;;;;;;5050382;28;20029;-43
2021/12/30 12:06:24;;;;;;;9.98;3.28;;;14.90;99.90;;;;;;5051446;28;20384;-43
2021/12/30 12:08:53;;;;;;;10.05;3.30;;;14.90;99.90;;;;;;5039036;28;20040;-44
2021/12/30 12:11:22;;;;;;;11.38;3.47;;;14.90;99.90;;;;;;5051276;28;20407;-44
2021/12/30 12:13:49;;;;;;;12.13;4.07;;;14.90;99.90;;;;;;5050685;28;20087;-43
2021/12/30 12:16:36;;;;;;;7.78;3.53;;;14.80;99.90;;;;;;5051843;28;20389;-44
2021/12/30 12:19:08;;;;;;;12.60;3.90;;;14.90;99.90;;;;;;5049986;28;20113;-44
2021/12/30 12:21:44;;;;;;;9.35;3.78;;;14.80;99.90;;;;;;5051218;28;20033;-44
2021/12/30 12:24:22;;;;;;;8.95;3.90;;;14.90;99.90;;;;;;5050185;28;20033;-43
2021/12/30 12:27:00;;;;;;;8.27;3.72;;;14.80;99.90;;;;;;5051043;28;20025;-44
2021/12/30 12:29:31;;;;;;;9.05;3.42;;;14.80;99.90;;;;;;5051180;28;20036;-43
2021/12/30 12:32:03;;;;;;;9.60;3.42;;;14.80;99.90;;;;;;5050226;28;20025;-43
2021/12/30 12:34:34;;;;;;;8.10;3.65;;;14.80;99.90;;;;;;5050549;28;20069;-43
2021/12/30 12:37:00;;;;;;;8.52;3.60;;;14.80;99.90;;;;;;5051238;28;20025;-44
2021/12/30 12:39:38;;;;;;;7.25;4.43;;;14.90;99.90;;;;;;5049819;28;20345;-43
2021/12/30 12:42:06;;;;;;;8.50;3.83;;;14.90;99.90;;;;;;5030912;28;20100;-43